EDHLEDDG

Guest
Details From EDHL - Lubeck Blankensee
To EDDG - Muenster Osnabrueck
Flight Number -
Tags generated
Created
Modified
Stats Distance 149 nm / 275 km
Max Altitude 10,900 ft / 3,322 m
Waypoints 3
Social Downloads 0
Likes 0
Share VATSIM

Download

Looking for another format? Having issues loading an existing format? Contact us
Advertisement - Login to hide

Notes

Basic altitude profile: - Ascent Rate: 2500ft/min - Ascent Speed: 250kts - Cruise Altitude: 35000ft - Cruise Speed: 420kts - Descent Rate: 1500ft/min - Descent Speed: 250kts Options: - Use NATs: yes - Use PACOTS: yes - Use low airways: yes - Use high airways: yes

Route

EDHL BASUM EDDG

ID Type Via Altitude Latitude Longitude Leg Dist Tot Dist Heading (true) Name
O EDHL APT - 0 ft / 0 m 53.80496˚ 10.71706˚ - 0 nm - Lubeck Blankensee
BASUM FIX - 10,900 ft / 3,322 m 52.77194˚ 8.78861˚ 92 nm 92 nm 229° / 227° -
O EDDG APT - 0 ft / 0 m 52.13458˚ 7.68467˚ 55 nm 148 nm 227° / 226° Muenster Osnabrueck

Altitude Profile

Advertisement - Login to hide

EDHL

Details ICAO EDHL (LBC)
Name Lubeck Blankensee
Region Germany - Civil
Timezone Europe/Berlin (UTC+1.0)
Stats Elevation 53 ft / 16 m (AMSL)
Location 53.804963° 10.717059°
Runways 1
Magnetic Variation 3.023° E

METAR

EDHL 181650Z VRB02KT CAVOK M00/M01 Q1026

Decode

TAF

Not found

Departure Runways

ID Width Length Bearing (true) Bearing (mag) Surface Threshold Offset Overrun Length
07 197 ft / 60 m 6,877 ft / 2,096 m 71.96° 68.94° Asphalt 984 ft / 300 m 0 ft / 0 m
25 197 ft / 60 m 6,877 ft / 2,096 m 251.98° 248.96° Asphalt 0 ft / 0 m 0 ft / 0 m

EDDG

Details ICAO EDDG (FMO)
Name Muenster Osnabrueck
Region Germany - Civil
Timezone Europe/Berlin (UTC+1.0)
Stats Elevation 159 ft / 48 m (AMSL)
Location 52.134580° 7.684669°
Runways 1
Magnetic Variation 2.070° E

METAR

EDDG 181720Z 31003KT 280V340 4000 -DZ BR BKN006 02/02 Q1027 NOSIG

Decode

TAF

TAF AMD EDDG 181610Z 1816/1912 VRB03KT 4000 BR BKN004 TEMPO 1816/1821 6000 BKN006 TEMPO 1821/1912 2000 -DZ BR BKN006

Decode

Destination Runways

ID Width Length Bearing (true) Bearing (mag) Surface Threshold Offset Overrun Length
07 148 ft / 45 m 7,303 ft / 2,226 m 70.93° 68.86° Asphalt 151 ft / 46 m 0 ft / 0 m
25 148 ft / 45 m 7,303 ft / 2,226 m 250.96° 248.89° Asphalt 292 ft / 89 m 0 ft / 0 m

Approach Navaids

Runway Type Ident Frequency Range Bearing (true) Bearing (mag) Slope Elevation
07 Localiser IMOE 111.90 MHz 18 nm / 33 km 70.93° 68.86° - 156 ft / 48 m (AMSL)
07 Glidescope IMOE 111.90 MHz 10 nm / 19 km 70.95° 68.88° 3.00° 156 ft / 48 m (AMSL)
25 Localiser IMOW 110.10 MHz 18 nm / 33 km 251.02° 248.95° - 159 ft / 48 m (AMSL)
25 Glidescope IMOW 110.10 MHz 10 nm / 19 km 250.95° 248.88° 3.00° 159 ft / 48 m (AMSL)